Time;durP1;ratioP1;P1;durP2;ratioP2;P2;SDS_P1;SDS_P2;PMS_P1;PMS_P2;Temp;Humidity;BMP_temperature;BMP_pressure;BME280_temperature;BME280_humidity;BME280_pressure;Samples;Min_cycle;Max_cycle;Signal;HPM_P1;HPM_P2
2023/02/16 00:01:24;;;;;;;;;119.00;98.67;;;;;-2.49;100.00;100935.22;6276927;20;3695153;-44
2023/02/16 00:03:56;;;;;;;;;112.33;88.00;;;;;-2.50;100.00;100929.94;6283389;20;3682965;-43
2023/02/16 00:06:28;;;;;;;;;119.00;94.33;;;;;-2.49;100.00;100927.34;6316914;20;3693035;-44
2023/02/16 00:08:58;;;;;;;;;114.67;100.33;;;;;-2.45;100.00;100926.53;6282848;20;3694042;-43
2023/02/16 00:14:24;;;;;;;;;137.00;108.00;;;;;-2.53;100.00;100924.63;6282822;20;3713783;-43
2023/02/16 00:16:59;;;;;;;;;137.33;103.00;;;;;-2.58;100.00;100918.44;6282335;20;3712743;-43
2023/02/16 00:19:41;;;;;;;;;161.00;116.33;;;;;-2.45;100.00;100928.25;6279361;20;3727346;-43
2023/02/16 00:22:11;;;;;;;;;140.33;111.00;;;;;-2.21;100.00;100932.91;6284791;20;3723188;-46
2023/02/16 00:24:42;;;;;;;;;149.00;118.50;;;;;-2.16;100.00;100925.91;6281076;20;3731513;-43
2023/02/16 00:27:17;;;;;;;;;141.25;113.50;;;;;-2.13;100.00;100935.59;6314692;20;3711958;-45
2023/02/16 00:29:47;;;;;;;;;133.00;123.33;;;;;-2.21;100.00;100932.91;6310704;20;3696143;-44
2023/02/16 00:32:16;;;;;;;;;142.67;113.33;;;;;-2.27;100.00;100932.81;6280327;20;3711719;-59
2023/02/16 00:34:46;;;;;;;;;141.33;113.00;;;;;-2.27;100.00;100930.19;6282254;20;3719088;-59
2023/02/16 00:37:16;;;;;;;;;138.33;105.33;;;;;-2.46;100.00;100921.22;6276160;20;4477339;-58
2023/02/16 00:39:46;;;;;;;;;142.00;111.00;;;;;-2.51;100.00;100926.44;6312995;20;3725284;-60
2023/02/16 00:42:23;;;;;;;;;128.33;99.67;;;;;-2.57;100.00;100917.59;6282025;20;3689884;-59
2023/02/16 00:44:56;;;;;;;;;152.75;119.00;;;;;-2.59;100.00;100911.44;6281631;20;3725457;-60
2023/02/16 00:47:40;;;;;;;;;157.33;123.00;;;;;-2.58;100.00;100919.34;6278023;20;3720162;-59
2023/02/16 00:50:19;;;;;;;;;137.67;102.00;;;;;-2.57;100.00;100913.22;6274871;20;3721072;-60
2023/02/16 00:52:49;;;;;;;;;106.00;73.50;;;;;-2.29;100.00;100914.41;6278188;20;3684747;-60
2023/02/16 00:55:24;;;;;;;;;168.67;129.67;;;;;-2.19;100.00;100899.59;6314216;20;3699682;-59
2023/02/16 00:58:23;;;;;;;;;138.67;102.33;;;;;-2.23;100.00;100897.81;6281305;20;3706498;-59
2023/02/16 01:01:11;;;;;;;;;155.25;117.25;;;;;-2.06;100.00;100901.47;6279075;20;3720109;-60
2023/02/16 01:03:41;;;;;;;;;146.00;113.33;;;;;-2.13;100.00;100904.03;6275816;20;3718120;-60
2023/02/16 01:12:16;;;;;;;;;168.67;129.67;;;;;-2.16;100.00;100899.59;6279869;20;3717073;-60
2023/02/16 01:14:53;;;;;;;;;130.67;107.67;;;;;-2.51;100.00;100896.63;6284378;20;3706523;-60
2023/02/16 01:17:24;;;;;;;;;136.67;104.33;;;;;-2.61;100.00;100890.38;6284970;20;3714850;-59
2023/02/16 01:19:54;;;;;;;;;125.33;100.00;;;;;-2.83;100.00;100883.13;6285394;20;3711693;-59
2023/02/16 01:22:24;;;;;;;;;119.33;96.00;;;;;-2.41;100.00;100877.47;6285867;20;3686715;-60
2023/02/16 01:24:53;;;;;;;;;129.00;102.00;;;;;-2.80;100.00;100872.63;6284768;20;3711716;-60
2023/02/16 01:27:23;;;;;;;;;145.67;105.33;;;;;-2.85;100.00;100879.59;6286592;20;3707622;-60
2023/02/16 01:29:53;;;;;;;;;133.67;105.00;;;;;-2.87;100.00;100882.19;6284936;20;3706509;-60
2023/02/16 01:32:22;;;;;;;;;138.00;105.00;;;;;-2.81;100.00;100881.41;6286259;20;2820145;-60
2023/02/16 01:34:52;;;;;;;;;121.00;101.00;;;;;-2.77;100.00;100883.19;6318007;20;3694030;-59
2023/02/16 01:37:22;;;;;;;;;127.67;111.00;;;;;-2.59;100.00;100878.13;6286470;20;3699177;-60
2023/02/16 01:39:52;;;;;;;;;120.67;97.67;;;;;-2.88;100.00;100870.78;6285694;20;3699199;-60
2023/02/16 01:42:50;;;;;;;;;131.33;95.67;;;;;-2.97;100.00;100875.94;6285703;20;3703369;-60
2023/02/16 01:45:34;;;;;;;;;120.00;96.00;;;;;-2.93;100.00;100867.22;6283185;20;3702321;-59
2023/02/16 01:48:12;;;;;;;;;118.33;93.67;;;;;-3.03;100.00;100864.47;6287044;20;3701304;-60
2023/02/16 01:51:07;;;;;;;;;114.67;83.00;;;;;-2.99;100.00;100861.91;6285964;20;3687729;-60
2023/02/16 01:53:53;;;;;;;;;111.67;83.67;;;;;-3.21;100.00;100859.84;6284878;20;3678420;-60
2023/02/16 01:56:58;;;;;;;;;119.33;85.00;;;;;-3.01;100.00;100861.00;6316949;20;3696155;-61
2023/02/16 01:59:43;;;;;;;;;147.33;108.67;;;;;-2.77;100.00;100856.91;6283597;20;3721110;-60
2023/02/16 02:02:23;;;;;;;;;111.00;86.67;;;;;-2.88;100.00;100855.03;6285076;20;3684672;-60
2023/02/16 02:08:00;;;;;;;;;114.00;83.00;;;;;-3.24;100.00;100847.56;6284418;20;3686762;-60
2023/02/16 02:11:10;;;;;;;;;111.67;82.33;;;;;-2.83;100.00;100851.59;6280641;20;3688873;-60
2023/02/16 02:14:00;;;;;;;;;109.33;82.00;;;;;-2.80;100.00;100843.72;6280280;20;3692976;-60
2023/02/16 02:16:30;;;;;;;;;111.33;79.33;;;;;-3.05;100.00;100830.31;6281099;20;3685067;-60
2023/02/16 02:19:00;;;;;;;;;114.00;87.00;;;;;-2.99;100.00;100829.50;6281241;20;3686737;-60
2023/02/16 02:25:54;;;;;;;;;115.67;85.00;;;;;-2.96;100.00;100830.41;6280046;20;3689797;-60
2023/02/16 02:29:25;;;;;;;;;114.33;86.33;;;;;-2.98;100.00;100828.63;6281561;20;3679470;-60
2023/02/16 02:32:17;;;;;;;;;118.67;98.00;;;;;-2.78;100.00;100823.63;6281102;20;3700237;-60
2023/02/16 02:35:26;;;;;;;;;143.00;103.33;;;;;-3.11;100.00;100819.72;6286139;20;3717006;-60
2023/02/16 02:38:11;;;;;;;;;125.67;94.67;;;;;-3.23;100.00;100835.34;6282382;20;3675257;-59
2023/02/16 02:41:13;;;;;;;;;113.00;76.67;;;;;-3.15;100.00;100826.69;6276805;20;3687129;-60
2023/02/16 02:43:57;;;;;;;;;113.00;79.00;;;;;-3.17;100.00;100831.03;6284967;20;3684696;-59
2023/02/16 02:46:33;;;;;;;;;110.00;74.00;;;;;-3.10;100.00;100825.00;6280096;20;3686734;-60
2023/02/16 02:49:04;;;;;;;;;113.00;81.67;;;;;-3.03;100.00;100822.44;6314594;20;3688809;-60
2023/02/16 02:51:39;;;;;;;;;113.33;84.00;;;;;-3.04;100.00;100818.94;6282742;20;3697149;-59
2023/02/16 03:00:46;;;;;;;;;104.67;76.00;;;;;-2.79;100.00;100828.00;6281895;20;3668031;-60
2023/02/16 03:03:32;;;;;;;;;109.00;75.33;;;;;-2.97;100.00;100828.66;6314269;20;3673155;-60
2023/02/16 03:06:08;;;;;;;;;105.00;75.33;;;;;-2.91;100.00;100823.47;6282235;20;3684764;-59
2023/02/16 03:08:43;;;;;;;;;117.33;85.33;;;;;-2.97;100.00;100828.66;6316289;20;3694063;-60
2023/02/16 03:14:35;;;;;;;;;95.80;74.60;;;;;-3.12;100.00;100828.47;6281711;20;3641936;-60
2023/02/16 03:31:37;;;;;;;;;112.00;81.67;;;;;-2.90;100.00;100813.84;6313346;20;3688776;-59
2023/02/16 03:34:07;;;;;;;;;122.00;89.33;;;;;-2.96;100.00;100819.03;6279202;20;3679462;-60
2023/02/16 03:36:41;;;;;;;;;122.67;95.00;;;;;-3.31;100.00;100815.09;6279982;20;3709646;-59
2023/02/16 03:39:12;;;;;;;;;123.67;93.33;;;;;-3.47;100.00;100807.91;6282319;20;3703383;-59
2023/02/16 03:41:52;;;;;;;;;121.33;85.00;;;;;-3.60;100.00;100804.22;6279720;20;3694033;-60
2023/02/16 03:44:23;;;;;;;;;114.33;81.00;;;;;-3.37;100.00;100807.16;6280844;20;3701325;-59
2023/02/16 03:46:52;;;;;;;;;97.00;73.00;;;;;-3.07;100.00;100808.41;6281093;20;2891047;-61
2023/02/16 03:49:22;;;;;;;;;101.00;75.00;;;;;-3.11;100.00;100799.59;6282193;20;3659612;-60
2023/02/16 03:51:51;;;;;;;;;96.67;73.00;;;;;-3.48;100.00;100808.72;6312845;20;3663783;-60
2023/02/16 03:54:21;;;;;;;;;108.33;77.67;;;;;-3.51;100.00;100802.56;6279927;20;3682951;-60
2023/02/16 03:56:50;;;;;;;;;108.67;73.33;;;;;-3.28;100.00;100800.25;6281120;20;3678366;-60
2023/02/16 03:59:20;;;;;;;;;113.33;77.33;;;;;-2.96;100.00;100811.16;6316277;20;3693088;-60
2023/02/16 04:01:50;;;;;;;;;100.00;80.00;;;;;-3.21;100.00;100807.31;6281229;20;2897687;-60
2023/02/16 04:04:19;;;;;;;;;120.00;93.67;;;;;-3.42;100.00;100807.94;6313989;20;3700289;-60
2023/02/16 04:06:49;;;;;;;;;111.67;84.00;;;;;-3.39;100.00;100803.63;6281298;20;3687864;-58
2023/02/16 04:09:19;;;;;;;;;113.00;85.67;;;;;-3.48;100.00;100808.72;6282883;20;3694061;-60
2023/02/16 04:14:36;;;;;;;;;117.67;84.67;;;;;-3.28;100.00;100801.13;6277787;20;3687080;-60
2023/02/16 04:17:04;;;;;;;;;93.67;62.67;;;;;-3.47;100.00;100800.03;6279008;20;3647130;-59
2023/02/16 04:19:34;;;;;;;;;112.33;81.00;;;;;-3.43;100.00;100795.69;6314051;20;3678500;-60
2023/02/16 04:22:04;;;;;;;;;120.67;84.67;;;;;-3.66;100.00;100797.97;6279396;20;3699249;-61
2023/02/16 04:24:33;;;;;;;;;119.33;82.33;;;;;-3.73;100.00;100793.53;6281385;20;3697106;-60
2023/02/16 04:27:03;;;;;;;;;113.33;80.00;;;;;-3.52;100.00;100796.44;6279730;20;3692964;-61
2023/02/16 04:29:33;;;;;;;;;116.00;88.00;;;;;-3.64;100.00;100796.28;6311752;20;3689881;-61
2023/02/16 04:32:04;;;;;;;;;124.67;93.67;;;;;-3.28;100.00;100790.63;6283839;20;3680458;-60
2023/02/16 04:34:34;;;;;;;;;127.67;97.67;;;;;-3.52;100.00;100791.19;6279138;20;3691939;-60
2023/02/16 04:37:04;;;;;;;;;117.33;89.67;;;;;-3.38;100.00;100792.25;6280791;20;3700248;-60
2023/02/16 04:39:34;;;;;;;;;128.00;98.67;;;;;-3.40;100.00;100795.72;6282808;20;3712922;-60
2023/02/16 04:42:04;;;;;;;;;108.67;76.00;;;;;-3.35;100.00;100778.28;6310774;20;3683667;-61
2023/02/16 04:44:34;;;;;;;;;118.00;85.33;;;;;-3.65;100.00;100797.16;6280073;20;3684791;-60
2023/02/16 04:47:03;;;;;;;;;91.67;65.33;;;;;-3.63;100.00;100800.69;6278307;20;2903656;-60
2023/02/16 04:49:33;;;;;;;;;113.67;79.33;;;;;-3.26;100.00;100795.91;6312326;20;3689818;-60
2023/02/16 04:52:03;;;;;;;;;107.00;75.67;;;;;-3.43;100.00;100806.19;6280728;20;3679410;-60
2023/02/16 04:54:34;;;;;;;;;128.67;100.33;;;;;-3.27;100.00;100799.38;6313253;20;3703473;-60
2023/02/16 04:57:04;;;;;;;;;132.00;94.33;;;;;-3.21;100.00;100808.22;6281119;20;3704408;-60
2023/02/16 04:59:34;;;;;;;;;128.33;101.33;;;;;-3.17;100.00;100809.13;6279404;20;3707927;-60
2023/02/16 05:02:04;;;;;;;;;135.33;98.33;;;;;-3.38;100.00;100808.00;6278975;20;3721184;-60
2023/02/16 05:04:34;;;;;;;;;131.67;96.67;;;;;-3.49;100.00;100801.72;6277877;20;3701292;-60
2023/02/16 05:07:04;;;;;;;;;137.00;103.25;;;;;-3.38;100.00;100815.88;6282169;20;3717962;-60
2023/02/16 05:09:34;;;;;;;;;149.33;121.00;;;;;-3.16;100.00;100810.88;6280558;20;3712091;-60
2023/02/16 05:14:52;;;;;;;;;143.67;106.00;;;;;-3.62;100.00;100805.06;6281117;20;3715231;-60
2023/02/16 05:17:25;;;;;;;;;130.00;94.67;;;;;-3.55;100.00;100797.28;6271752;20;4449268;-60
2023/02/16 05:19:59;;;;;;;;;123.33;95.67;;;;;-3.40;100.00;100796.59;6311816;20;3697146;-60
2023/02/16 05:22:33;;;;;;;;;129.67;99.00;;;;;-3.70;100.00;100790.94;6282336;20;3679519;-60
2023/02/16 05:25:04;;;;;;;;;123.00;94.00;;;;;-3.65;100.00;100800.66;6274800;20;3704403;-61
2023/02/16 05:27:34;;;;;;;;;110.67;81.67;;;;;-3.51;100.00;100797.31;6280607;20;3702353;-60
2023/02/16 05:30:06;;;;;;;;;119.33;90.33;;;;;-3.48;100.00;100800.84;6278719;20;3695148;-61
2023/02/16 05:32:35;;;;;;;;;137.00;96.67;;;;;-3.53;100.00;100802.53;6280161;20;3705508;-60
2023/02/16 05:35:05;;;;;;;;;146.33;95.33;;;;;-3.37;100.00;100798.38;6275443;20;3692052;-60
2023/02/16 05:37:35;;;;;;;;;141.67;100.33;;;;;-3.50;100.00;100805.22;6283495;20;3712844;-60
2023/02/16 05:40:06;;;;;;;;;112.67;76.67;;;;;-3.35;100.00;100809.78;6280169;20;3691922;-60
2023/02/16 05:42:36;;;;;;;;;143.67;104.67;;;;;-3.37;100.00;100816.75;6279216;20;3725309;-60
2023/02/16 05:45:06;;;;;;;;;117.00;87.67;;;;;-3.44;100.00;100822.81;6281889;20;3700272;-61
2023/02/16 05:47:36;;;;;;;;;129.00;106.00;;;;;-3.53;100.00;100818.28;6281938;20;3708579;-60
2023/02/16 05:50:06;;;;;;;;;122.67;90.67;;;;;-4.13;100.00;100817.41;6275063;20;3703536;-60
2023/02/16 05:52:34;;;;;;;;;105.00;74.00;;;;;-4.18;100.00;100813.84;6273761;20;2562194;-60
2023/02/16 05:55:04;;;;;;;;;116.00;85.00;;;;;-4.27;100.00;100809.31;6281292;20;3685677;-60
2023/02/16 05:57:34;;;;;;;;;105.33;77.33;;;;;-4.14;100.00;100817.38;6276048;20;3670142;-61
2023/02/16 06:00:05;;;;;;;;;103.00;76.33;;;;;-4.14;100.00;100818.25;6312435;20;3667098;-60
2023/02/16 06:02:35;;;;;;;;;122.00;86.67;;;;;-4.15;100.00;100818.25;6318207;20;3700243;-60
2023/02/16 06:05:05;;;;;;;;;130.00;91.00;;;;;-4.03;100.00;100815.78;6286837;20;3698161;-60
2023/02/16 06:07:35;;;;;;;;;147.33;114.33;;;;;-4.00;100.00;100816.75;6288455;20;3727336;-60
2023/02/16 06:10:05;;;;;;;;;170.50;124.00;;;;;-4.00;100.00;100813.25;6284445;20;3588917;-60
2023/02/16 06:12:35;;;;;;;;;153.33;116.33;;;;;-3.75;100.00;100809.25;6316495;20;3724218;-60
2023/02/16 06:15:05;;;;;;;;;176.33;132.00;;;;;-3.53;100.00;100816.56;6285079;20;3701347;-60
2023/02/16 06:17:35;;;;;;;;;131.67;116.00;;;;;-3.53;100.00;100820.91;6284616;20;3709647;-60
2023/02/16 06:20:05;;;;;;;;;138.67;112.00;;;;;-3.36;100.00;100808.91;6282022;20;3721112;-60
2023/02/16 06:22:35;;;;;;;;;142.67;102.00;;;;;-2.93;100.00;100812.03;6281190;20;3708745;-60
2023/02/16 06:25:05;;;;;;;;;141.00;108.00;;;;;-3.19;100.00;100811.72;6284808;20;3723199;-60
2023/02/16 06:27:36;;;;;;;;;144.25;102.25;;;;;-3.01;100.00;100805.81;6283188;20;3715866;-60
2023/02/16 06:30:07;;;;;;;;;160.50;117.75;;;;;-2.84;100.00;100800.78;6280106;20;3715543;-60
2023/02/16 06:32:37;;;;;;;;;130.33;109.67;;;;;-2.71;100.00;100796.53;6314561;20;3706529;-60
2023/02/16 06:35:08;;;;;;;;;129.00;82.67;;;;;-2.68;100.00;100793.94;6282228;20;3683688;-61
2023/02/16 06:37:38;;;;;;;;;123.67;90.00;;;;;-2.83;100.00;100796.41;6285845;20;3694150;-60
2023/02/16 06:40:12;;;;;;;;;115.33;99.33;;;;;-2.57;100.00;100801.94;6282753;20;3688876;-61
2023/02/16 06:42:43;;;;;;;;;184.33;146.67;;;;;-2.62;100.00;100788.72;6282213;20;3725294;-61
2023/02/16 06:45:14;;;;;;;;;185.25;141.25;;;;;-2.49;100.00;100795.88;6285815;20;3717029;-61
2023/02/16 06:47:44;;;;;;;;;148.75;113.25;;;;;-2.43;100.00;100790.66;6284931;20;3725258;-60
2023/02/16 06:50:14;;;;;;;;;154.67;117.67;;;;;-2.35;100.00;100798.63;6281372;20;3729641;-60
2023/02/16 06:52:44;;;;;;;;;146.00;115.33;;;;;-1.85;100.00;100794.63;6286271;20;3721107;-60
2023/02/16 06:55:13;;;;;;;;;133.67;104.00;;;;;-2.05;100.00;100797.13;6280475;20;3722137;-60
2023/02/16 06:57:43;;;;;;;;;142.00;114.67;;;;;-1.94;100.00;100794.56;6285684;20;3722174;-60
2023/02/16 07:00:15;;;;;;;;;156.00;122.67;;;;;-1.88;100.00;100794.59;6281896;20;3727881;-60
2023/02/16 07:02:45;;;;;;;;;161.67;122.33;;;;;-1.81;100.00;100785.88;6285263;20;3720063;-60
2023/02/16 07:05:15;;;;;;;;;174.00;129.00;;;;;-1.75;100.00;100785.91;6283026;20;3696169;-60
2023/02/16 07:07:45;;;;;;;;;149.00;122.67;;;;;-1.56;100.00;100787.78;6284679;20;3715922;-60
2023/02/16 07:10:16;;;;;;;;;164.50;118.25;;;;;-1.63;100.00;100785.13;6277852;20;4486674;-60
2023/02/16 07:12:46;;;;;;;;;160.25;122.25;;;;;-1.97;100.00;100784.91;6283956;20;4471072;-60
2023/02/16 07:15:17;;;;;;;;;169.00;134.00;;;;;-1.22;100.00;100782.66;6283165;20;4487799;-60
2023/02/16 07:17:48;;;;;;;;;152.25;123.75;;;;;-1.06;100.00;100783.59;6309845;20;3734812;-60
2023/02/16 07:20:18;;;;;;;;;166.67;127.67;;;;;-1.03;100.00;100785.38;6283828;20;3707570;-60
2023/02/16 07:22:48;;;;;;;;;155.00;139.00;;;;;-0.74;100.00;100786.34;6281271;20;3716919;-61
2023/02/16 07:25:18;;;;;;;;;233.33;175.00;;;;;-0.87;100.00;100781.91;6313677;20;3710663;-61
2023/02/16 07:27:48;;;;;;;;;221.00;177.00;;;;;-0.37;100.00;100786.41;6284980;20;3706504;-61
2023/02/16 07:30:18;;;;;;;;;211.67;157.33;;;;;-0.39;100.00;100784.66;6284395;20;3716908;-61
2023/02/16 07:32:48;;;;;;;;;194.50;146.00;;;;;0.09;100.00;100785.50;6284894;20;4497167;-62
2023/02/16 07:35:21;;;;;;;;;186.50;143.75;;;;;0.35;98.75;100782.84;6281323;20;4481470;-60
2023/02/16 07:37:50;;;;;;;;;269.75;203.00;;;;;0.30;97.87;100784.59;6318389;20;4469371;-61
2023/02/16 07:40:20;;;;;;;;;253.00;196.25;;;;;0.22;97.43;100788.13;6315153;20;4489863;-61
2023/02/16 07:42:50;;;;;;;;;225.75;173.25;;;;;0.60;97.02;100779.22;6316880;20;4467055;-60
2023/02/16 07:45:20;;;;;;;;;184.50;149.50;;;;;0.86;95.85;100783.53;6314678;20;4502506;-61
2023/02/16 07:47:50;;;;;;;;;204.00;165.25;;;;;1.15;93.79;100782.53;6281558;20;4483660;-61
2023/02/16 07:50:21;;;;;;;;;289.75;240.25;;;;;0.62;93.97;100782.75;6280098;20;3734860;-62
2023/02/16 07:52:51;;;;;;;;;223.00;173.25;;;;;0.44;97.29;100772.22;6277626;20;4457511;-61
2023/02/16 07:55:20;;;;;;;;;227.25;178.25;;;;;1.18;97.06;100769.28;6314320;20;4496179;-61
2023/02/16 07:57:54;;;;;;;;;220.75;179.00;;;;;1.54;94.85;100769.03;6312093;20;4481167;-59
2023/02/16 08:00:24;;;;;;;;;272.33;225.33;;;;;1.67;94.64;100776.91;6310204;20;3714924;-61
2023/02/16 08:02:54;;;;;;;;;288.75;234.75;;;;;1.75;96.16;100767.13;6281794;20;3717026;-61
2023/02/16 08:05:24;;;;;;;;;246.75;197.00;;;;;2.16;95.41;100771.19;6279602;20;4515964;-61
2023/02/16 08:07:54;;;;;;;;;186.67;146.67;;;;;2.58;93.55;100774.25;6284872;20;3714948;-61
2023/02/16 08:10:25;;;;;;;;;242.00;194.25;;;;;2.60;93.49;100780.41;6282830;20;3740115;-60
2023/02/16 08:12:54;;;;;;;;;250.50;207.00;;;;;3.15;92.96;100781.50;6317016;20;4505488;-60
2023/02/16 08:15:26;;;;;;;;;213.25;170.50;;;;;3.57;91.68;100782.66;6280419;20;4479503;-61
2023/02/16 08:17:53;;;;;;;;;215.50;169.50;;;;;3.71;91.51;100788.66;6277272;20;1961743;-61
2023/02/16 08:20:23;;;;;;;;;176.50;144.50;;;;;3.92;90.57;100790.09;6283382;20;4471211;-62
2023/02/16 08:23:11;;;;;;;;;174.50;147.00;;;;;3.65;90.55;100783.44;6307913;20;1952421;-61
2023/02/16 08:25:42;;;;;;;;;151.14;117.43;;;;;4.02;92.45;100788.13;6294302;20;2533640;-61
2023/02/16 08:28:13;;;;;;;;;123.25;107.50;;;;;4.20;91.24;100781.63;6281286;20;4482614;-62
2023/02/16 08:30:41;;;;;;;;;152.50;125.00;;;;;4.15;89.92;100787.03;6272410;20;1950295;-61
2023/02/16 08:33:12;;;;;;;;;132.50;114.00;;;;;4.16;90.61;100786.13;6281777;20;4467989;-61
2023/02/16 08:35:42;;;;;;;;;143.33;115.67;;;;;4.55;88.97;100782.75;6281879;20;3708601;-61
2023/02/16 08:38:13;;;;;;;;;143.75;113.25;;;;;4.21;91.45;100787.81;6282547;20;4494084;-61
2023/02/16 08:40:48;;;;;;;;;121.50;100.25;;;;;4.41;92.35;100783.03;6284687;20;4475319;-62
2023/02/16 08:43:16;;;;;;;;;155.50;122.00;;;;;4.44;90.60;100782.97;6272022;20;1959792;-61
2023/02/16 08:45:48;;;;;;;;;155.50;122.50;;;;;4.39;92.57;100784.81;6272782;20;1962822;-61
2023/02/16 08:48:16;;;;;;;;;176.00;140.00;;;;;4.74;92.32;100788.59;6275832;20;1965399;-61
2023/02/16 08:50:53;;;;;;;;;264.25;222.00;;;;;5.23;90.17;100798.22;6278407;20;4499227;-61
2023/02/16 08:53:23;;;;;;;;;138.00;118.00;;;;;5.36;90.62;100799.69;6278185;20;1948244;-59
2023/02/16 08:55:59;;;;;;;;;178.00;148.00;;;;;5.97;89.19;100801.88;6272165;20;1956638;-59
2023/02/16 08:58:27;;;;;;;;;135.50;115.50;;;;;5.36;89.69;100802.38;6276779;20;1957710;-59
2023/02/16 09:00:58;;;;;;;;;138.75;114.75;;;;;5.64;89.79;100807.94;6276719;20;4477301;-59
2023/02/16 09:03:28;;;;;;;;;112.67;94.67;;;;;5.92;89.75;100810.84;6312759;20;3684617;-59
2023/02/16 09:06:03;;;;;;;;;134.50;108.50;;;;;6.18;89.60;100817.34;6266737;20;1957718;-59
2023/02/16 09:08:37;;;;;;;;;123.00;105.50;;;;;6.19;90.18;100807.53;6280371;20;4476412;-59
2023/02/16 09:11:13;;;;;;;;;112.67;99.67;;;;;6.30;88.76;100805.50;6280811;20;3696046;-59
2023/02/16 09:13:43;;;;;;;;;123.50;106.00;;;;;6.80;89.04;100804.13;6307738;20;1950340;-59
2023/02/16 09:16:22;;;;;;;;;104.25;86.00;;;;;6.98;87.96;100800.06;6281051;20;3700318;-57
2023/02/16 09:18:51;;;;;;;;;170.00;135.50;;;;;6.92;87.98;100802.00;6275295;20;1951300;-59
2023/02/16 09:21:24;;;;;;;;;146.50;117.00;;;;;6.80;88.50;100796.13;6273657;20;1951303;-59
2023/02/16 09:23:56;;;;;;;;;136.25;112.25;;;;;6.99;87.53;100784.91;6279281;20;4475265;-59
2023/02/16 09:26:28;;;;;;;;;111.25;91.75;;;;;7.54;87.26;100790.38;6279866;20;4454407;-59
2023/02/16 09:28:57;;;;;;;;;80.00;59.00;;;;;7.88;85.77;100796.41;6310091;20;3632522;-60
2023/02/16 09:31:32;;;;;;;;;78.67;59.33;;;;;7.89;85.11;100790.09;6310887;20;3628459;-59
2023/02/16 09:34:18;;;;;;;;;76.67;59.67;;;;;8.03;84.77;100800.38;6311524;20;2850834;-59
2023/02/16 09:36:49;;;;;;;;;72.67;56.00;;;;;8.14;84.28;100805.38;6315591;20;3608606;-60
2023/02/16 09:39:21;;;;;;;;;75.00;57.67;;;;;8.38;83.26;100803.66;6315676;20;3629448;-60
2023/02/16 09:42:18;;;;;;;;;71.33;53.33;;;;;8.09;84.15;100802.84;6318002;20;3645115;-60
2023/02/16 09:45:15;;;;;;;;;72.00;56.67;;;;;8.41;83.57;100802.69;6284192;20;3631631;-61
2023/02/16 09:47:49;;;;;;;;;76.67;56.00;;;;;8.11;82.56;100811.69;6314166;20;3629435;-60
2023/02/16 09:50:27;;;;;;;;;75.67;58.00;;;;;8.24;82.95;100801.44;6314382;20;3622147;-60
2023/02/16 09:53:39;;;;;;;;;73.00;54.67;;;;;7.90;83.87;100804.38;6315741;20;3636731;-60
2023/02/16 09:56:40;;;;;;;;;73.33;58.33;;;;;8.03;83.49;100804.81;6317096;20;3614830;-60
2023/02/16 09:59:52;;;;;;;;;75.00;56.00;;;;;7.97;83.64;100797.00;6316376;20;3633659;-59
2023/02/16 10:02:51;;;;;;;;;69.00;53.33;;;;;8.59;82.28;100801.19;6316960;20;3637738;-60
2023/02/16 10:05:53;;;;;;;;;72.67;52.67;;;;;8.48;81.72;100799.75;6313844;20;3645077;-60
2023/02/16 10:08:37;;;;;;;;;66.00;50.33;;;;;8.41;81.38;100802.69;6316693;20;3629457;-58
2023/02/16 10:11:39;;;;;;;;;77.33;58.00;;;;;8.26;81.70;100798.72;6315208;20;3632573;-60
2023/02/16 10:15:06;;;;;;;;;69.33;53.00;;;;;7.84;81.20;100796.53;6283454;20;3628377;-60
2023/02/16 10:18:07;;;;;;;;;58.00;48.00;;;;;8.19;81.53;100792.72;6312264;20;2855496;-60
2023/02/16 10:20:46;;;;;;;;;66.67;51.00;;;;;8.40;80.47;100793.81;6281767;20;3646187;-60
2023/02/16 10:23:57;;;;;;;;;64.00;48.67;;;;;8.77;80.44;100785.34;6312472;20;3625268;-59
2023/02/16 10:26:40;;;;;;;;;71.67;54.00;;;;;8.78;79.21;100791.56;6317171;20;3615902;-59
2023/02/16 10:29:21;;;;;;;;;65.00;49.33;;;;;8.55;79.10;100782.53;6315163;20;3625280;-60
2023/02/16 10:32:29;;;;;;;;;69.00;53.67;;;;;8.67;78.83;100780.38;6316220;20;3617955;-60
2023/02/16 10:35:16;;;;;;;;;70.33;52.00;;;;;8.80;77.69;100784.34;6314622;20;3645532;-59
2023/02/16 10:38:46;;;;;;;;;72.50;53.00;;;;;8.68;77.32;100782.97;6308044;20;3640028;-59
2023/02/16 10:41:39;;;;;;;;;78.00;55.33;;;;;9.02;77.19;100774.56;6314680;20;3635704;-60
2023/02/16 10:44:36;;;;;;;;;73.00;53.50;;;;;8.66;77.87;100770.56;6318329;20;3640925;-59
2023/02/16 10:47:32;;;;;;;;;66.00;50.67;;;;;8.40;77.13;100771.50;6310896;20;3632560;-60
2023/02/16 10:50:04;;;;;;;;;67.00;52.00;;;;;8.46;78.23;100769.50;6313649;20;3646064;-60
2023/02/16 10:52:39;;;;;;;;;68.33;55.00;;;;;9.01;77.41;100766.59;6284302;20;3625292;-60
2023/02/16 10:55:11;;;;;;;;;71.00;50.67;;;;;8.98;76.83;100762.25;6314860;20;3648232;-59
2023/02/16 10:57:41;;;;;;;;;66.67;52.00;;;;;8.90;76.55;100755.41;6273717;20;3631896;-59
2023/02/16 11:00:21;;;;;;;;;69.00;52.67;;;;;9.15;75.73;100758.03;6311905;20;3630460;-60
2023/02/16 11:02:51;;;;;;;;;68.33;53.33;;;;;8.83;75.62;100753.91;6311946;20;3639921;-60
2023/02/16 11:05:35;;;;;;;;;74.33;55.00;;;;;9.02;75.90;100754.94;6314991;20;3623408;-60
2023/02/16 11:08:11;;;;;;;;;71.67;54.33;;;;;9.05;76.44;100753.97;6313178;20;3631557;-59
2023/02/16 11:10:49;;;;;;;;;65.00;50.00;;;;;9.19;75.32;100744.47;6313470;20;3620175;-59
2023/02/16 11:13:36;;;;;;;;;71.33;55.00;;;;;8.81;75.42;100735.19;6314765;20;3641993;-59
2023/02/16 11:16:20;;;;;;;;;71.67;55.67;;;;;9.24;75.03;100738.91;6284537;20;3623218;-59
2023/02/16 11:19:12;;;;;;;;;68.00;53.00;;;;;8.92;74.31;100734.78;6283033;20;2871347;-60
2023/02/16 11:21:54;;;;;;;;;74.50;55.00;;;;;9.53;72.89;100742.25;6316493;20;3653503;-59
2023/02/16 11:24:32;;;;;;;;;72.00;54.00;;;;;9.05;73.40;100720.00;6309883;20;3643116;-60
2023/02/16 11:27:12;;;;;;;;;67.00;53.33;;;;;9.07;73.57;100733.34;6312444;20;3623301;-59
2023/02/16 11:29:41;;;;;;;;;63.33;49.67;;;;;9.18;72.64;100721.25;6318290;20;3623283;-60
2023/02/16 11:32:14;;;;;;;;;73.00;57.00;;;;;9.04;74.51;100723.63;6284400;20;2869178;-59
2023/02/16 11:34:50;;;;;;;;;69.00;53.00;;;;;9.04;73.55;100728.97;6315723;20;3629461;-60
2023/02/16 11:37:30;;;;;;;;;71.67;55.00;;;;;9.08;73.13;100719.88;6280126;20;3622148;-59
2023/02/16 11:40:20;;;;;;;;;68.00;54.67;;;;;9.52;72.19;100713.69;6313431;20;3627365;-60
2023/02/16 11:43:01;;;;;;;;;72.67;55.00;;;;;9.48;71.70;100712.06;6313844;20;3640863;-59
2023/02/16 11:45:34;;;;;;;;;68.67;55.00;;;;;9.49;72.40;100712.00;6279250;20;3611684;-60
2023/02/16 11:48:12;;;;;;;;;69.67;55.00;;;;;9.59;71.43;100699.13;6314440;20;3637820;-57
2023/02/16 11:51:01;;;;;;;;;76.00;57.00;;;;;9.18;72.99;100699.84;6280830;20;3648404;-59
2023/02/16 11:54:02;;;;;;;;;69.33;54.67;;;;;9.63;72.61;100700.72;6315856;20;3623271;-60
2023/02/16 11:56:34;;;;;;;;;69.00;53.67;;;;;9.78;72.56;100707.25;6312440;20;3628472;-59
2023/02/16 11:59:19;;;;;;;;;72.33;57.33;;;;;9.07;73.25;100702.06;6315744;20;3631537;-60
2023/02/16 12:02:38;;;;;;;;;76.00;57.00;;;;;9.42;73.58;100700.66;6317051;20;3639957;-59
2023/02/16 12:05:31;;;;;;;;;71.67;58.00;;;;;9.50;73.12;100692.31;6295812;20;3602440;-59
2023/02/16 12:08:53;;;;;;;;;70.00;54.67;;;;;9.51;72.16;100677.97;6283920;20;3632655;-60
2023/02/16 12:12:17;;;;;;;;;75.00;57.67;;;;;9.65;71.89;100674.72;6313434;20;3624182;-59